Time;durP1;ratioP1;P1;durP2;ratioP2;P2;SDS_P1;SDS_P2;PMS_P1;PMS_P2;Temp;Humidity;BMP_temperature;BMP_pressure;BME280_temperature;BME280_humidity;BME280_pressure;Samples;Min_cycle;Max_cycle;Signal;HPM_P1;HPM_P2
2021/08/31 00:01:35;;;;;;;9.05;4.07;;;19.70;77.20;;;;;;5091261;28;20051;-73
2021/08/31 00:04:00;;;;;;;6.88;3.83;;;19.70;77.40;;;;;;5095583;28;20048;-73
2021/08/31 00:06:26;;;;;;;9.35;4.28;;;19.70;77.30;;;;;;5095567;28;20090;-73
2021/08/31 00:08:52;;;;;;;6.63;3.95;;;19.70;77.30;;;;;;5095451;28;20040;-73
2021/08/31 00:11:18;;;;;;;6.10;3.65;;;19.70;77.30;;;;;;5095745;28;20032;-73
2021/08/31 00:13:43;;;;;;;6.78;3.88;;;19.70;77.40;;;;;;5095836;28;20405;-73
2021/08/31 00:16:09;;;;;;;6.22;3.45;;;19.70;77.40;;;;;;5095562;28;20036;-73
2021/08/31 00:18:35;;;;;;;8.43;3.80;;;19.70;77.30;;;;;;5095514;28;20161;-74
2021/08/31 00:21:00;;;;;;;6.40;3.75;;;19.70;77.40;;;;;;5095376;28;20506;-74
2021/08/31 00:23:26;;;;;;;9.23;3.40;;;19.70;77.30;;;;;;5095279;28;20056;-73
2021/08/31 00:25:53;;;;;;;7.38;3.95;;;19.70;77.40;;;;;;5095258;28;20043;-73
2021/08/31 00:28:22;;;;;;;7.97;3.60;;;19.70;77.40;;;;;;5095228;28;20042;-73
2021/08/31 00:30:48;;;;;;;8.07;4.10;;;19.70;77.90;;;;;;5094418;28;20443;-73
2021/08/31 00:33:14;;;;;;;6.57;3.17;;;19.70;77.40;;;;;;5077952;28;20109;-74
2021/08/31 00:35:40;;;;;;;7.90;3.63;;;19.70;77.40;;;;;;5074780;28;20048;-74
2021/08/31 00:38:06;;;;;;;6.07;3.25;;;19.70;77.40;;;;;;5074841;28;20512;-74
2021/08/31 00:40:32;;;;;;;6.60;3.40;;;19.60;77.30;;;;;;5075253;28;20139;-73
2021/08/31 00:42:57;;;;;;;5.57;3.55;;;19.70;77.40;;;;;;5075179;28;20133;-73
2021/08/31 00:45:24;;;;;;;10.43;3.83;;;19.70;77.40;;;;;;5074826;28;20094;-72
2021/08/31 00:47:50;;;;;;;5.65;3.47;;;19.70;77.40;;;;;;5074481;28;20123;-73
2021/08/31 00:50:19;;;;;;;7.20;3.60;;;19.60;77.30;;;;;;5057983;28;20137;-73
2021/08/31 00:52:45;;;;;;;6.47;3.92;;;19.60;77.40;;;;;;5074912;28;20041;-73
2021/08/31 00:55:11;;;;;;;6.15;3.50;;;19.60;77.40;;;;;;5074554;28;20041;-73
2021/08/31 00:57:41;;;;;;;9.00;3.95;;;19.60;77.40;;;;;;5074539;28;20503;-73
2021/08/31 01:00:12;;;;;;;7.03;4.10;;;19.60;77.40;;;;;;5074764;28;20076;-73
2021/08/31 01:02:38;;;;;;;5.22;3.40;;;19.70;77.40;;;;;;5093629;28;20137;-73
2021/08/31 01:05:06;;;;;;;7.57;3.63;;;19.60;77.40;;;;;;5080652;28;20084;-74
2021/08/31 01:07:32;;;;;;;5.90;3.15;;;19.60;77.40;;;;;;5074848;28;20067;-73
2021/08/31 01:10:00;;;;;;;8.55;3.80;;;19.60;77.50;;;;;;5074870;28;20036;-74
2021/08/31 01:12:27;;;;;;;8.60;3.40;;;19.60;77.50;;;;;;5074676;28;20436;-73
2021/08/31 01:14:53;;;;;;;8.88;4.32;;;19.60;77.50;;;;;;5074321;28;20413;-73
2021/08/31 01:17:29;;;;;;;6.22;3.33;;;19.60;77.50;;;;;;5074535;28;20101;-73
2021/08/31 01:19:56;;;;;;;7.90;3.60;;;19.60;77.50;;;;;;5075312;28;20044;-73
2021/08/31 01:22:22;;;;;;;7.95;3.70;;;19.60;77.50;;;;;;5075718;28;20443;-74
2021/08/31 01:24:54;;;;;;;6.43;3.60;;;19.60;77.50;;;;;;5074624;28;20040;-75
2021/08/31 01:27:21;;;;;;;8.00;3.45;;;19.60;77.50;;;;;;5074333;28;20091;-73
2021/08/31 01:29:48;;;;;;;8.52;3.90;;;19.60;77.50;;;;;;5074693;28;20040;-74
2021/08/31 01:32:13;;;;;;;7.90;3.40;;;19.60;77.60;;;;;;5074389;28;20455;-74
2021/08/31 01:34:39;;;;;;;9.32;4.53;;;19.60;77.50;;;;;;5074601;28;20102;-74
2021/08/31 01:37:09;;;;;;;8.75;4.30;;;19.60;77.50;;;;;;5074626;28;20419;-73
2021/08/31 01:39:35;;;;;;;8.20;3.40;;;19.60;77.50;;;;;;5074582;28;20048;-73
2021/08/31 01:42:00;;;;;;;7.72;3.35;;;19.60;77.50;;;;;;5074980;28;20048;-72
2021/08/31 01:44:26;;;;;;;9.32;4.50;;;19.60;77.60;;;;;;5077946;28;20044;-73
2021/08/31 01:46:52;;;;;;;7.78;3.72;;;19.60;77.60;;;;;;5078151;28;20352;-72
2021/08/31 01:49:19;;;;;;;7.15;3.25;;;19.60;77.50;;;;;;5078037;28;20072;-73
2021/08/31 01:51:44;;;;;;;8.15;3.40;;;19.60;77.60;;;;;;5091059;28;20055;-73
2021/08/31 01:54:10;;;;;;;7.35;3.60;;;19.60;77.50;;;;;;5098265;28;20048;-74
2021/08/31 01:56:36;;;;;;;7.30;3.47;;;19.60;77.50;;;;;;5097738;28;20094;-73
2021/08/31 01:59:02;;;;;;;6.40;3.50;;;19.60;77.50;;;;;;5097589;28;20079;-72
2021/08/31 02:01:27;;;;;;;8.07;3.10;;;19.60;77.50;;;;;;5067756;28;20063;-73
2021/08/31 02:03:53;;;;;;;6.07;3.47;;;19.60;77.50;;;;;;5058108;28;20088;-72
2021/08/31 02:06:19;;;;;;;7.35;3.85;;;19.60;77.50;;;;;;5057557;28;20047;-73
2021/08/31 02:08:44;;;;;;;7.68;3.20;;;19.60;77.50;;;;;;5040125;28;20037;-74
2021/08/31 02:11:10;;;;;;;8.13;4.15;;;19.60;77.50;;;;;;5040578;28;20055;-73
2021/08/31 02:13:36;;;;;;;7.35;3.42;;;19.60;77.50;;;;;;5057685;28;20102;-73
2021/08/31 02:16:02;;;;;;;7.53;3.60;;;19.50;77.40;;;;;;5057224;28;20045;-73
2021/08/31 02:18:27;;;;;;;7.93;3.83;;;19.60;77.50;;;;;;5057405;28;20048;-72
2021/08/31 02:20:53;;;;;;;6.03;3.35;;;19.60;77.50;;;;;;5057474;28;20044;-73
2021/08/31 02:23:19;;;;;;;7.57;3.30;;;19.50;78.00;;;;;;5057411;28;20120;-73
2021/08/31 02:25:44;;;;;;;7.88;3.67;;;19.50;77.50;;;;;;5057326;28;20045;-73
2021/08/31 02:28:10;;;;;;;6.93;3.40;;;19.60;78.20;;;;;;5057225;28;20119;-73
2021/08/31 02:30:36;;;;;;;10.48;4.28;;;19.50;77.50;;;;;;5057039;28;20467;-73
2021/08/31 02:33:02;;;;;;;7.38;3.70;;;19.50;77.40;;;;;;5056821;28;20048;-73
2021/08/31 02:35:28;;;;;;;9.15;3.60;;;19.50;77.40;;;;;;5057090;28;20356;-74
2021/08/31 02:37:55;;;;;;;7.88;4.03;;;19.50;77.40;;;;;;5057049;28;20040;-73
2021/08/31 02:40:21;;;;;;;7.18;3.05;;;19.60;77.50;;;;;;5056684;28;20134;-73
2021/08/31 02:42:47;;;;;;;8.13;3.80;;;19.50;77.50;;;;;;5056612;28;20456;-73
2021/08/31 02:45:13;;;;;;;7.75;3.55;;;19.50;77.40;;;;;;5056904;28;20044;-73
2021/08/31 02:47:40;;;;;;;9.35;3.70;;;19.50;77.40;;;;;;5056760;28;20047;-73
2021/08/31 02:50:06;;;;;;;5.45;3.28;;;19.50;77.40;;;;;;5056997;28;20041;-72
2021/08/31 02:52:32;;;;;;;7.85;3.78;;;19.50;77.40;;;;;;5039931;28;20045;-73
2021/08/31 02:54:58;;;;;;;8.88;3.78;;;19.50;77.40;;;;;;5055946;28;20051;-73
2021/08/31 02:57:23;;;;;;;7.00;3.45;;;19.50;77.40;;;;;;5038901;28;20056;-73
2021/08/31 02:59:49;;;;;;;5.60;3.63;;;19.50;77.50;;;;;;5056384;28;20045;-74
2021/08/31 03:02:15;;;;;;;8.63;4.07;;;19.50;77.50;;;;;;5071177;28;20147;-73
2021/08/31 03:04:42;;;;;;;7.75;3.92;;;19.50;77.50;;;;;;5076623;28;20070;-73
2021/08/31 03:07:11;;;;;;;7.68;3.67;;;19.50;77.50;;;;;;5076354;28;20040;-73
2021/08/31 03:09:37;;;;;;;6.68;4.20;;;19.50;77.40;;;;;;5076583;28;20044;-73
2021/08/31 03:12:04;;;;;;;9.93;3.90;;;19.50;77.50;;;;;;5059008;28;20114;-73
2021/08/31 03:14:30;;;;;;;7.88;3.72;;;19.50;77.50;;;;;;5076460;28;20044;-72
2021/08/31 03:16:56;;;;;;;5.93;3.65;;;19.50;77.50;;;;;;5076253;28;20037;-74
2021/08/31 03:19:24;;;;;;;6.28;3.45;;;19.50;77.50;;;;;;5076391;28;20033;-73
2021/08/31 03:21:58;;;;;;;6.80;3.65;;;19.50;77.50;;;;;;5076289;28;20121;-72
2021/08/31 03:24:24;;;;;;;;;;;19.50;77.40;;;;;;5076850;28;20045;-72
2021/08/31 03:26:50;;;;;;;7.53;3.70;;;19.50;77.20;;;;;;5075886;28;19924;-72
2021/08/31 03:29:16;;;;;;;5.70;3.60;;;19.50;77.60;;;;;;5076572;28;20040;-72
2021/08/31 03:31:42;;;;;;;6.38;3.50;;;19.50;77.50;;;;;;5078261;28;20048;-73
2021/08/31 03:34:08;;;;;;;7.10;3.47;;;19.50;77.50;;;;;;5076072;28;20044;-73
2021/08/31 03:36:34;;;;;;;7.13;3.85;;;19.50;77.60;;;;;;5058363;28;20052;-73
2021/08/31 03:39:00;;;;;;;7.85;3.67;;;19.50;77.60;;;;;;5076091;28;20501;-72
2021/08/31 03:41:26;;;;;;;6.78;3.75;;;19.50;77.60;;;;;;5075609;28;20071;-73
2021/08/31 03:43:52;;;;;;;6.70;3.58;;;19.50;77.60;;;;;;5075725;28;20051;-73
2021/08/31 03:46:17;;;;;;;6.50;3.72;;;19.50;77.50;;;;;;5099152;28;20130;-74
2021/08/31 03:48:43;;;;;;;6.90;3.50;;;19.50;77.50;;;;;;5096005;28;20043;-73
2021/08/31 03:51:09;;;;;;;7.10;4.10;;;19.50;77.50;;;;;;5095944;28;20413;-73
2021/08/31 03:53:35;;;;;;;8.32;4.10;;;19.50;77.50;;;;;;5096074;28;20042;-72
2021/08/31 03:56:01;;;;;;;6.63;3.60;;;19.50;77.50;;;;;;5095696;28;20040;-73
2021/08/31 03:58:27;;;;;;;6.30;3.75;;;19.50;77.50;;;;;;5096113;28;20044;-73
2021/08/31 04:00:52;;;;;;;7.15;3.60;;;19.50;77.50;;;;;;5094730;28;20502;-73
2021/08/31 04:03:18;;;;;;;5.57;3.42;;;19.50;77.50;;;;;;5078815;28;20463;-72
2021/08/31 04:05:44;;;;;;;7.00;3.72;;;19.40;77.50;;;;;;5074427;28;20055;-73
2021/08/31 04:08:10;;;;;;;9.15;4.32;;;19.40;77.50;;;;;;5075168;28;20040;-73
2021/08/31 04:10:36;;;;;;;7.45;3.97;;;19.40;77.50;;;;;;5075362;28;20462;-72
2021/08/31 04:13:03;;;;;;;6.43;3.70;;;19.50;77.50;;;;;;5075112;28;20047;-73
2021/08/31 04:15:29;;;;;;;6.10;3.42;;;19.40;77.50;;;;;;5075216;28;20067;-73
2021/08/31 04:17:55;;;;;;;8.15;3.92;;;19.40;77.50;;;;;;5075293;28;20491;-73
2021/08/31 04:20:21;;;;;;;7.45;3.97;;;19.50;77.60;;;;;;5075336;28;20432;-73
2021/08/31 04:22:46;;;;;;;8.70;3.60;;;19.40;77.50;;;;;;5075778;28;20435;-73
2021/08/31 04:25:12;;;;;;;9.25;4.20;;;19.50;77.50;;;;;;5074957;28;20431;-73
2021/08/31 04:27:38;;;;;;;6.55;3.88;;;19.40;77.50;;;;;;5074957;28;20037;-73
2021/08/31 04:30:04;;;;;;;4.78;3.50;;;19.40;77.50;;;;;;5075125;28;20122;-73
2021/08/31 04:32:30;;;;;;;6.03;3.53;;;19.40;78.20;;;;;;5086013;28;20118;-73
2021/08/31 04:34:58;;;;;;;9.63;4.00;;;19.40;77.60;;;;;;5095468;28;20102;-72
2021/08/31 04:37:24;;;;;;;8.77;4.45;;;19.40;77.50;;;;;;5091082;28;20066;-73
2021/08/31 04:39:49;;;;;;;5.47;3.78;;;19.40;77.50;;;;;;5095913;28;20040;-72
2021/08/31 04:42:15;;;;;;;7.50;4.15;;;19.40;77.60;;;;;;5089501;28;20083;-73
2021/08/31 04:44:41;;;;;;;6.25;3.85;;;19.40;77.60;;;;;;5115432;28;20039;-73
2021/08/31 04:47:06;;;;;;;8.20;4.35;;;19.40;77.60;;;;;;5115658;28;20039;-73
2021/08/31 04:49:32;;;;;;;8.32;4.55;;;19.40;77.60;;;;;;5115536;28;20043;-73
2021/08/31 04:51:58;;;;;;;9.75;4.05;;;19.40;77.50;;;;;;5115521;28;20031;-73
2021/08/31 04:54:24;;;;;;;6.05;3.70;;;19.40;77.50;;;;;;5115956;28;20062;-71
2021/08/31 04:56:50;;;;;;;6.05;3.75;;;19.40;77.50;;;;;;5093153;28;20032;-74
2021/08/31 04:59:16;;;;;;;7.32;4.03;;;19.40;77.60;;;;;;5091036;28;20083;-74
2021/08/31 05:01:42;;;;;;;7.47;4.25;;;19.40;77.50;;;;;;5091761;28;20036;-75
2021/08/31 05:04:08;;;;;;;10.68;4.28;;;19.30;77.50;;;;;;5074832;28;20387;-73
2021/08/31 05:06:34;;;;;;;10.00;4.53;;;19.30;77.50;;;;;;5074693;28;20063;-71
2021/08/31 05:08:59;;;;;;;9.13;4.50;;;19.30;77.70;;;;;;5074853;28;20048;-72
2021/08/31 05:11:25;;;;;;;7.20;4.05;;;19.30;77.90;;;;;;5074955;28;20080;-72
2021/08/31 05:13:51;;;;;;;8.90;4.43;;;19.30;77.90;;;;;;5077289;28;20044;-71
2021/08/31 05:16:18;;;;;;;9.30;4.60;;;19.30;78.00;;;;;;5095009;28;20128;-72
2021/08/31 05:18:44;;;;;;;9.52;4.15;;;19.30;77.90;;;;;;5076539;28;20062;-71
2021/08/31 05:21:09;;;;;;;8.25;4.57;;;19.40;77.20;;;;;;5079040;28;20090;-72
2021/08/31 05:23:36;;;;;;;8.90;4.80;;;19.40;76.80;;;;;;5077576;28;20470;-71
2021/08/31 05:26:02;;;;;;;10.52;4.55;;;19.40;76.70;;;;;;5070522;28;20359;-72
2021/08/31 05:28:28;;;;;;;16.25;5.15;;;19.40;76.60;;;;;;5098856;28;20043;-72
2021/08/31 05:30:54;;;;;;;14.30;4.45;;;19.40;76.60;;;;;;5098681;28;20040;-74
2021/08/31 05:33:20;;;;;;;11.18;5.43;;;19.40;76.40;;;;;;5093410;28;20032;-70
2021/08/31 05:35:46;;;;;;;11.63;5.72;;;19.40;76.40;;;;;;5077755;28;20354;-69
2021/08/31 05:38:11;;;;;;;17.00;5.53;;;19.30;76.30;;;;;;5078687;28;20071;-71
2021/08/31 05:40:37;;;;;;;12.70;5.32;;;19.30;76.50;;;;;;5077890;28;20042;-71
2021/08/31 05:43:03;;;;;;;14.88;4.63;;;19.30;76.70;;;;;;5077884;28;20109;-75
2021/08/31 05:45:29;;;;;;;11.68;4.90;;;19.30;77.10;;;;;;5078050;28;20051;-73
2021/08/31 05:47:55;;;;;;;12.73;4.80;;;19.30;77.30;;;;;;5093683;28;20121;-75
2021/08/31 05:50:21;;;;;;;10.15;4.30;;;19.30;77.50;;;;;;5107509;28;20529;-76
2021/08/31 05:52:47;;;;;;;13.65;5.10;;;19.30;77.50;;;;;;5104721;28;20076;-74
2021/08/31 05:55:13;;;;;;;11.82;4.75;;;19.30;77.50;;;;;;5114573;28;20071;-75
2021/08/31 05:57:40;;;;;;;11.70;4.72;;;19.30;77.60;;;;;;5096929;28;20039;-68
2021/08/31 06:00:08;;;;;;;11.05;4.10;;;19.30;77.70;;;;;;5085261;28;20044;-76
2021/08/31 06:02:35;;;;;;;14.82;4.25;;;19.30;77.80;;;;;;5084752;28;20052;-76
2021/08/31 06:05:02;;;;;;;12.48;4.72;;;19.30;77.90;;;;;;5083189;28;20665;-73
2021/08/31 06:07:27;;;;;;;8.23;4.20;;;19.30;77.70;;;;;;5077449;28;20052;-74
2021/08/31 06:09:53;;;;;;;9.75;3.80;;;19.30;77.70;;;;;;5077651;28;20055;-73
2021/08/31 06:12:19;;;;;;;13.57;3.97;;;19.30;77.70;;;;;;5078121;28;20041;-74
2021/08/31 06:14:44;;;;;;;13.95;3.97;;;19.30;78.00;;;;;;5059849;28;20127;-74
2021/08/31 06:17:10;;;;;;;10.10;4.30;;;19.30;78.10;;;;;;5077481;28;20115;-74
2021/08/31 06:19:37;;;;;;;18.58;5.18;;;19.30;77.70;;;;;;5076923;28;20119;-75
2021/08/31 06:22:04;;;;;;;16.60;4.90;;;19.30;77.90;;;;;;5077264;28;20418;-83
2021/08/31 06:24:30;;;;;;;14.75;5.63;;;19.30;78.20;;;;;;5059348;28;20072;-85
2021/08/31 06:26:55;;;;;;;15.27;4.82;;;19.40;77.70;;;;;;5071751;28;20047;-79
2021/08/31 06:29:21;;;;;;;11.05;4.93;;;19.40;77.50;;;;;;5058429;28;20033;-85
2021/08/31 06:31:47;;;;;;;15.52;4.72;;;19.40;77.30;;;;;;5086292;28;20032;-77
2021/08/31 06:34:13;;;;;;;15.80;4.90;;;19.40;77.10;;;;;;5096877;28;20067;-76
2021/08/31 06:36:39;;;;;;;15.40;4.63;;;19.40;77.00;;;;;;5097231;28;20051;-75
2021/08/31 06:39:04;;;;;;;13.10;4.88;;;19.40;76.90;;;;;;5097552;28;20051;-73
2021/08/31 06:41:30;;;;;;;13.43;4.68;;;19.40;76.80;;;;;;5097457;28;20124;-74
2021/08/31 06:43:59;;;;;;;14.80;4.70;;;19.40;76.70;;;;;;5087967;28;20032;-73
2021/08/31 06:46:24;;;;;;;12.00;4.75;;;19.40;76.60;;;;;;5077030;28;20037;-75
2021/08/31 06:48:50;;;;;;;15.70;5.50;;;19.40;76.60;;;;;;5076861;28;20503;-75
2021/08/31 06:51:16;;;;;;;13.77;4.95;;;19.50;76.20;;;;;;5076470;28;20127;-74
2021/08/31 06:53:42;;;;;;;12.82;5.25;;;19.50;76.00;;;;;;5055275;28;20390;-75
2021/08/31 06:56:08;;;;;;;13.25;4.63;;;19.40;75.90;;;;;;5096400;28;20086;-74
2021/08/31 06:58:34;;;;;;;14.88;4.88;;;19.40;75.70;;;;;;5079216;28;20050;-72
2021/08/31 07:01:00;;;;;;;15.00;4.55;;;19.40;75.80;;;;;;5096818;28;20051;-72
2021/08/31 07:03:26;;;;;;;12.60;4.65;;;19.40;75.90;;;;;;5096331;28;20123;-71
2021/08/31 07:05:51;;;;;;;10.90;4.85;;;19.40;76.60;;;;;;5097230;28;20076;-73
2021/08/31 07:08:17;;;;;;;15.02;4.97;;;19.40;76.00;;;;;;5096604;28;20032;-73
2021/08/31 07:10:43;;;;;;;11.60;4.35;;;19.30;75.90;;;;;;5097258;28;20094;-73
2021/08/31 07:13:10;;;;;;;10.25;4.57;;;19.40;75.60;;;;;;5096742;28;20035;-72
2021/08/31 07:15:37;;;;;;;9.85;4.60;;;19.40;75.30;;;;;;5096218;28;20105;-72
2021/08/31 07:18:03;;;;;;;12.02;4.20;;;19.30;75.10;;;;;;5094880;28;20055;-72
2021/08/31 07:20:28;;;;;;;12.32;4.18;;;19.30;75.00;;;;;;5096758;28;20091;-72
2021/08/31 07:22:54;;;;;;;12.15;4.20;;;19.30;75.20;;;;;;5078365;28;20044;-72
2021/08/31 07:25:20;;;;;;;9.68;4.45;;;19.30;75.50;;;;;;5096373;28;20039;-73
2021/08/31 07:27:47;;;;;;;10.93;4.70;;;19.30;76.30;;;;;;5096275;28;20113;-74
2021/08/31 07:30:13;;;;;;;12.73;4.53;;;19.30;75.90;;;;;;5096195;28;20044;-73
2021/08/31 07:32:39;;;;;;;15.43;4.63;;;19.40;76.10;;;;;;5078289;28;20185;-71
2021/08/31 07:35:05;;;;;;;13.60;3.88;;;19.40;76.20;;;;;;5050453;28;20443;-77
2021/08/31 07:37:31;;;;;;;14.18;4.35;;;19.40;76.40;;;;;;5074961;28;20447;-74
2021/08/31 07:39:57;;;;;;;13.32;4.32;;;19.40;76.40;;;;;;5088831;28;20094;-73
2021/08/31 07:42:23;;;;;;;11.70;4.25;;;19.40;76.40;;;;;;5075821;28;20036;-73
2021/08/31 07:44:49;;;;;;;19.27;5.10;;;19.50;76.50;;;;;;5057999;28;20055;-74
2021/08/31 07:47:15;;;;;;;11.55;4.38;;;19.50;76.40;;;;;;5073138;28;20045;-74
2021/08/31 07:49:41;;;;;;;11.52;3.67;;;19.50;76.40;;;;;;5074726;28;20455;-73
2021/08/31 07:52:07;;;;;;;10.40;3.67;;;19.50;76.40;;;;;;5079171;28;20105;-73
2021/08/31 07:54:33;;;;;;;11.70;4.22;;;19.50;76.50;;;;;;5075623;28;20123;-74
2021/08/31 07:56:59;;;;;;;12.90;4.05;;;19.50;76.50;;;;;;5075643;28;20044;-73
2021/08/31 07:59:25;;;;;;;7.32;3.55;;;19.50;76.50;;;;;;5075254;28;20435;-73
2021/08/31 08:01:50;;;;;;;9.27;3.78;;;19.50;76.50;;;;;;5079384;28;20094;-73
2021/08/31 08:04:16;;;;;;;12.80;3.95;;;19.50;76.50;;;;;;5093967;28;20046;-74
2021/08/31 08:06:42;;;;;;;10.13;3.65;;;19.50;76.40;;;;;;5083176;28;20117;-73
2021/08/31 08:09:09;;;;;;;9.95;3.70;;;19.50;76.40;;;;;;5075160;28;20374;-73
2021/08/31 08:11:34;;;;;;;10.10;3.22;;;19.50;76.40;;;;;;5075241;28;20036;-72
2021/08/31 08:14:00;;;;;;;9.88;3.40;;;19.60;76.40;;;;;;5075073;28;20105;-73
2021/08/31 08:16:27;;;;;;;9.82;3.60;;;19.60;76.50;;;;;;5074897;28;20087;-72
2021/08/31 08:18:52;;;;;;;8.10;3.80;;;19.60;76.50;;;;;;5084797;28;20366;-72
2021/08/31 08:21:19;;;;;;;6.85;3.60;;;19.60;76.60;;;;;;5095257;28;20051;-75
2021/08/31 08:23:49;;;;;;;12.93;4.35;;;19.60;76.50;;;;;;5095339;28;20047;-74
2021/08/31 08:26:22;;;;;;;11.13;3.83;;;19.60;76.40;;;;;;5080798;28;20041;-73
2021/08/31 08:28:50;;;;;;;7.35;3.40;;;19.60;76.50;;;;;;5092081;28;20392;-73
2021/08/31 08:31:18;;;;;;;17.02;4.60;;;19.60;76.40;;;;;;5079903;28;20071;-72
2021/08/31 08:33:44;;;;;;;9.85;3.72;;;19.60;76.50;;;;;;5093630;28;20040;-73
2021/08/31 08:36:10;;;;;;;7.40;3.47;;;19.60;76.50;;;;;;5093431;28;20461;-73
2021/08/31 08:38:36;;;;;;;8.32;3.70;;;19.60;76.40;;;;;;5094234;28;20067;-73
2021/08/31 08:41:05;;;;;;;10.13;3.55;;;19.60;76.50;;;;;;5093797;28;20417;-72
2021/08/31 08:43:35;;;;;;;8.07;3.47;;;19.60;76.40;;;;;;5088226;28;20036;-75
2021/08/31 08:46:03;;;;;;;9.35;3.65;;;19.70;76.50;;;;;;5074792;28;20424;-73
2021/08/31 08:48:29;;;;;;;11.02;4.32;;;19.70;76.50;;;;;;5074808;28;20055;-75
2021/08/31 08:50:57;;;;;;;7.45;3.70;;;19.70;76.50;;;;;;5074855;28;20055;-75
2021/08/31 08:53:25;;;;;;;7.38;3.55;;;19.70;76.40;;;;;;5077346;28;20048;-73
2021/08/31 08:55:51;;;;;;;9.40;3.70;;;19.70;76.50;;;;;;5078831;28;20036;-74
2021/08/31 08:58:17;;;;;;;8.27;3.42;;;19.70;76.40;;;;;;5078951;28;20032;-72
2021/08/31 09:01:13;;;;;;;9.88;3.72;;;19.70;76.50;;;;;;5077577;28;20044;-76
2021/08/31 09:03:42;;;;;;;10.68;3.30;;;19.70;76.50;;;;;;5058401;28;20055;-78
2021/08/31 09:06:17;;;;;;;8.48;3.60;;;19.70;76.50;;;;;;5078697;28;20036;-77
2021/08/31 09:08:56;;;;;;;12.65;3.95;;;19.70;76.20;;;;;;5089372;28;20466;-77
2021/08/31 09:11:26;;;;;;;9.68;3.47;;;19.70;75.90;;;;;;5084267;28;20067;-74
2021/08/31 09:14:13;;;;;;;13.38;3.95;;;19.70;76.20;;;;;;5098131;28;20101;-74
2021/08/31 09:16:40;;;;;;;11.73;3.55;;;19.70;76.30;;;;;;5089363;28;20041;-76
2021/08/31 09:19:06;;;;;;;13.05;4.07;;;19.70;76.20;;;;;;5061542;28;20474;-71
2021/08/31 09:21:32;;;;;;;7.88;3.63;;;19.70;75.90;;;;;;5077773;28;20464;-71
2021/08/31 09:23:59;;;;;;;9.07;3.67;;;19.70;75.90;;;;;;5078321;28;20032;-73
2021/08/31 09:26:35;;;;;;;14.35;4.10;;;19.70;75.80;;;;;;5077232;28;20059;-72
2021/08/31 09:29:37;;;;;;;11.98;4.20;;;19.70;75.60;;;;;;5077796;28;20435;-71
2021/08/31 09:32:08;;;;;;;8.70;3.78;;;19.70;75.60;;;;;;5061038;28;20136;-71
2021/08/31 09:34:45;;;;;;;9.95;3.67;;;19.70;75.70;;;;;;5078094;28;20051;-72
2021/08/31 09:37:35;;;;;;;8.90;3.83;;;19.70;75.60;;;;;;5079084;28;20049;-71
2021/08/31 09:40:04;;;;;;;10.90;3.85;;;19.70;75.30;;;;;;5089480;28;20355;-71
2021/08/31 09:42:30;;;;;;;8.68;3.42;;;19.70;75.80;;;;;;5078098;28;20351;-72
2021/08/31 09:45:05;;;;;;;9.85;4.03;;;19.70;75.80;;;;;;5079207;28;20036;-71
2021/08/31 09:47:36;;;;;;;10.55;3.38;;;19.70;75.80;;;;;;5088943;28;20048;-71
2021/08/31 09:50:06;;;;;;;6.85;3.03;;;19.70;75.90;;;;;;5088228;28;20459;-71
2021/08/31 09:52:32;;;;;;;9.63;3.75;;;19.70;75.90;;;;;;5097584;28;20050;-72
2021/08/31 09:54:58;;;;;;;8.43;3.40;;;19.70;75.90;;;;;;5097712;28;20512;-72
2021/08/31 09:57:29;;;;;;;11.32;4.25;;;19.70;76.00;;;;;;5087173;28;20044;-73
2021/08/31 09:59:56;;;;;;;10.30;3.90;;;19.70;76.00;;;;;;5077490;28;20123;-73
2021/08/31 10:02:22;;;;;;;13.27;4.97;;;19.70;76.00;;;;;;5086181;28;20052;-71
2021/08/31 10:04:47;;;;;;;12.65;3.80;;;19.70;75.90;;;;;;5088880;28;20091;-74
2021/08/31 10:07:14;;;;;;;11.23;3.58;;;19.80;75.60;;;;;;5059945;28;20094;-76
2021/08/31 10:09:40;;;;;;;12.18;3.92;;;19.80;74.90;;;;;;5077307;28;20435;-79
2021/08/31 10:12:10;;;;;;;12.00;4.30;;;19.70;74.50;;;;;;5042689;28;20035;-73
2021/08/31 10:14:42;;;;;;;13.77;5.22;;;19.70;74.60;;;;;;5094171;28;20027;-78
2021/08/31 10:17:10;;;;;;;12.77;4.87;;;19.70;74.80;;;;;;5097221;28;20047;-76
2021/08/31 10:19:36;;;;;;;12.85;4.10;;;19.70;75.00;;;;;;5097223;28;20301;-77
2021/08/31 10:22:02;;;;;;;10.48;4.03;;;19.70;75.30;;;;;;5097566;28;20048;-76
2021/08/31 10:24:28;;;;;;;15.45;3.95;;;19.80;75.40;;;;;;5079963;28;20059;-76
2021/08/31 10:26:54;;;;;;;14.27;4.20;;;19.70;75.40;;;;;;5097445;28;20351;-75
2021/08/31 10:29:19;;;;;;;11.88;3.70;;;19.70;75.50;;;;;;5079856;28;20036;-76
2021/08/31 10:31:47;;;;;;;14.38;3.70;;;19.70;75.30;;;;;;5076811;28;20040;-78
2021/08/31 10:34:31;;;;;;;13.52;4.10;;;19.80;75.20;;;;;;5077065;28;20123;-79
2021/08/31 10:37:01;;;;;;;11.10;3.65;;;19.80;75.00;;;;;;5076815;28;20397;-77
2021/08/31 10:39:45;;;;;;;10.98;3.72;;;19.80;74.90;;;;;;5082826;28;20055;-76
2021/08/31 10:42:40;;;;;;;11.82;3.63;;;19.80;74.80;;;;;;5097248;28;20036;-76
2021/08/31 10:45:26;;;;;;;10.43;4.07;;;19.80;74.80;;;;;;5097419;28;20044;-77
2021/08/31 10:47:51;;;;;;;12.80;3.72;;;19.80;74.60;;;;;;5079480;28;20100;-77
2021/08/31 10:50:25;;;;;;;12.23;3.67;;;19.80;74.60;;;;;;5097183;28;20103;-76
2021/08/31 10:52:56;;;;;;;9.77;3.33;;;19.80;74.40;;;;;;5096674;28;20046;-77
2021/08/31 10:55:24;;;;;;;13.40;3.35;;;19.80;74.50;;;;;;5096871;28;20165;-79
2021/08/31 10:57:56;;;;;;;10.57;3.28;;;19.80;74.40;;;;;;5097052;28;20393;-77
2021/08/31 11:00:22;;;;;;;13.73;3.42;;;19.80;74.40;;;;;;5097207;28;20339;-76
2021/08/31 11:02:48;;;;;;;10.68;3.40;;;19.70;74.30;;;;;;5096747;28;20051;-75
2021/08/31 11:05:25;;;;;;;13.18;3.92;;;19.80;74.30;;;;;;5096943;28;20058;-76
2021/08/31 11:08:01;;;;;;;10.88;3.35;;;19.80;74.20;;;;;;5096694;28;20139;-75
2021/08/31 11:10:31;;;;;;;12.50;3.80;;;19.70;74.20;;;;;;5082906;28;20041;-74
2021/08/31 11:13:08;;;;;;;15.35;3.88;;;19.70;74.10;;;;;;5077015;28;20044;-76
2021/08/31 11:15:34;;;;;;;11.10;3.45;;;19.70;74.10;;;;;;5076035;28;20113;-77
2021/08/31 11:17:59;;;;;;;11.85;3.50;;;19.70;74.10;;;;;;5059222;28;20048;-73
2021/08/31 11:20:33;;;;;;;12.18;3.75;;;19.70;74.30;;;;;;5076388;28;20059;-77
2021/08/31 11:23:14;;;;;;;14.25;3.22;;;19.70;74.30;;;;;;5076491;28;20132;-74
2021/08/31 11:25:43;;;;;;;9.40;3.15;;;19.70;74.30;;;;;;5076104;28;20439;-74
2021/08/31 11:28:20;;;;;;;11.18;3.15;;;19.70;74.30;;;;;;5075790;28;20359;-78
2021/08/31 11:30:58;;;;;;;12.65;4.03;;;19.80;74.40;;;;;;5076217;28;20040;-78
2021/08/31 11:33:33;;;;;;;12.07;3.63;;;19.70;74.30;;;;;;5076165;28;20048;-75
2021/08/31 11:36:11;;;;;;;10.45;3.33;;;19.70;74.20;;;;;;5075668;28;20040;-74
2021/08/31 11:38:40;;;;;;;16.08;3.53;;;19.70;74.20;;;;;;5076090;28;20044;-75
2021/08/31 11:41:30;;;;;;;10.75;3.05;;;19.70;74.20;;;;;;5078482;28;20048;-74
2021/08/31 11:43:56;;;;;;;13.98;3.63;;;19.70;74.20;;;;;;5094862;28;20032;-76
2021/08/31 11:46:33;;;;;;;10.75;3.20;;;19.70;74.10;;;;;;5083824;28;20301;-78
2021/08/31 11:49:24;;;;;;;14.38;3.47;;;19.70;74.20;;;;;;5075694;28;20045;-76
2021/08/31 11:52:15;;;;;;;11.32;3.65;;;19.70;74.20;;;;;;5082844;28;20072;-73
2021/08/31 11:54:44;;;;;;;11.93;3.35;;;19.70;74.10;;;;;;5094496;28;20032;-73
2021/08/31 11:57:10;;;;;;;10.63;3.42;;;19.70;74.10;;;;;;5095402;28;20349;-71
2021/08/31 11:59:40;;;;;;;12.38;3.33;;;19.70;74.20;;;;;;5075554;28;20044;-72
2021/08/31 12:02:21;;;;;;;12.88;3.13;;;19.70;74.30;;;;;;5080069;28;20048;-75
2021/08/31 12:05:04;;;;;;;11.40;3.53;;;19.80;74.60;;;;;;5087096;28;20055;-73
2021/08/31 12:07:33;;;;;;;8.77;2.60;;;19.80;74.80;;;;;;5095319;28;20085;-72
2021/08/31 12:10:01;;;;;;;9.50;3.20;;;19.80;74.90;;;;;;5095000;28;20069;-73
2021/08/31 12:12:28;;;;;;;12.15;3.05;;;19.80;74.90;;;;;;5095436;28;20047;-73
2021/08/31 12:14:54;;;;;;;12.23;3.15;;;19.80;74.90;;;;;;5095144;28;20115;-73
2021/08/31 12:17:37;;;;;;;9.35;3.08;;;19.80;74.80;;;;;;5095634;28;20047;-72
2021/08/31 12:20:10;;;;;;;12.15;2.63;;;19.90;74.90;;;;;;5095388;28;20140;-73
2021/08/31 12:22:41;;;;;;;13.60;3.38;;;19.90;74.80;;;;;;5095219;28;20131;-73
2021/08/31 12:25:08;;;;;;;8.05;2.70;;;19.90;74.80;;;;;;5095357;28;20047;-73
2021/08/31 12:27:43;;;;;;;8.18;2.72;;;19.90;74.80;;;;;;5089329;28;20050;-72
2021/08/31 12:30:12;;;;;;;11.30;2.97;;;19.90;74.70;;;;;;5082024;28;20040;-72
2021/08/31 12:32:39;;;;;;;13.50;3.22;;;19.90;74.50;;;;;;5084691;28;20039;-74
2021/08/31 12:35:45;;;;;;;12.93;3.60;;;19.90;74.50;;;;;;5095219;28;20047;-70
2021/08/31 12:38:13;;;;;;;12.00;3.13;;;19.90;74.70;;;;;;5090012;28;20044;-72
2021/08/31 12:40:58;;;;;;;17.70;3.78;;;19.90;74.80;;;;;;5074981;28;20036;-72
2021/08/31 12:43:41;;;;;;;14.68;3.65;;;19.90;74.90;;;;;;5074718;28;20044;-72
2021/08/31 12:46:07;;;;;;;11.93;3.00;;;19.90;74.60;;;;;;5074946;28;20130;-73
2021/08/31 12:48:37;;;;;;;14.20;3.67;;;19.90;74.60;;;;;;5075019;28;20102;-72